Time;durP1;ratioP1;P1;durP2;ratioP2;P2;SDS_P1;SDS_P2;PMS_P1;PMS_P2;Temp;Humidity;BMP_temperature;BMP_pressure;BME280_temperature;BME280_humidity;BME280_pressure;Samples;Min_cycle;Max_cycle;Signal;HPM_P1;HPM_P2
2021/06/11 00:00:51;;;;;;;5.07;4.53;;;24.20;59.40;;;;;;5011943;28;20057;-57
2021/06/11 00:03:17;;;;;;;7.72;4.15;;;24.20;59.60;;;;;;5013081;28;20022;-60
2021/06/11 00:05:44;;;;;;;5.25;4.25;;;24.20;59.50;;;;;;5011952;28;20029;-59
2021/06/11 00:08:10;;;;;;;6.22;4.25;;;24.20;59.40;;;;;;5010911;28;20411;-60
2021/06/11 00:10:37;;;;;;;7.38;4.70;;;24.20;59.40;;;;;;5012198;28;20125;-60
2021/06/11 00:13:04;;;;;;;5.00;4.10;;;24.20;59.30;;;;;;5011318;28;20121;-59
2021/06/11 00:15:30;;;;;;;5.22;4.70;;;24.30;59.30;;;;;;5012236;28;20084;-60
2021/06/11 00:17:56;;;;;;;6.95;4.47;;;24.30;59.30;;;;;;5011365;28;20036;-60
2021/06/11 00:20:22;;;;;;;4.78;4.22;;;24.30;59.20;;;;;;5011561;28;20477;-60
2021/06/11 00:22:48;;;;;;;4.55;4.05;;;24.30;59.20;;;;;;5011940;28;20502;-57
2021/06/11 00:25:18;;;;;;;4.97;4.47;;;24.30;59.20;;;;;;5012108;28;20034;-60
2021/06/11 00:27:44;;;;;;;4.53;4.13;;;24.30;59.20;;;;;;5011974;28;20038;-60
2021/06/11 00:30:10;;;;;;;4.78;4.05;;;24.30;59.20;;;;;;5011092;28;20140;-60
2021/06/11 00:32:37;;;;;;;4.63;4.20;;;24.30;59.20;;;;;;5011824;28;20503;-60
2021/06/11 00:35:05;;;;;;;4.75;4.28;;;24.30;59.10;;;;;;5010927;28;20030;-60
2021/06/11 00:37:30;;;;;;;4.68;4.20;;;24.30;59.20;;;;;;5011973;28;20104;-60
2021/06/11 00:39:56;;;;;;;4.95;4.43;;;24.30;59.20;;;;;;5010596;28;20586;-59
2021/06/11 00:42:22;;;;;;;6.57;4.80;;;24.20;59.30;;;;;;5011923;28;20026;-60
2021/06/11 00:44:47;;;;;;;5.43;4.20;;;24.20;59.20;;;;;;5011575;28;20030;-55
2021/06/11 00:47:13;;;;;;;5.00;4.50;;;24.20;59.30;;;;;;5011370;28;20030;-60
2021/06/11 00:49:39;;;;;;;4.63;4.22;;;24.20;59.20;;;;;;5011587;28;20140;-60
2021/06/11 00:52:06;;;;;;;4.55;4.05;;;24.20;59.20;;;;;;5010336;28;20125;-59
2021/06/11 00:54:33;;;;;;;4.82;4.32;;;24.20;59.30;;;;;;5011781;28;20057;-60
2021/06/11 00:56:59;;;;;;;4.50;4.07;;;24.20;59.30;;;;;;5010891;28;20101;-60
2021/06/11 00:59:26;;;;;;;4.32;3.92;;;24.20;59.30;;;;;;5010501;28;20121;-60
2021/06/11 01:01:51;;;;;;;5.10;4.07;;;24.20;59.30;;;;;;5011660;28;20037;-59
2021/06/11 01:04:17;;;;;;;5.22;4.60;;;24.20;59.30;;;;;;5012040;28;20406;-60
2021/06/11 01:06:43;;;;;;;5.10;4.32;;;24.20;59.20;;;;;;5010794;28;20099;-59
2021/06/11 01:09:11;;;;;;;5.18;4.03;;;24.20;59.30;;;;;;5004666;28;20630;-60
2021/06/11 01:11:38;;;;;;;4.55;4.15;;;24.10;59.20;;;;;;5011487;28;20375;-60
2021/06/11 01:14:06;;;;;;;4.45;4.05;;;24.10;59.20;;;;;;5002753;28;20068;-60
2021/06/11 01:16:32;;;;;;;4.75;4.35;;;24.10;59.20;;;;;;5011389;28;20045;-60
2021/06/11 01:18:57;;;;;;;4.50;4.05;;;24.10;59.20;;;;;;5010819;28;20034;-59
2021/06/11 01:21:29;;;;;;;4.80;4.30;;;24.10;59.00;;;;;;5011181;28;20112;-60
2021/06/11 01:24:02;;;;;;;5.13;4.22;;;24.10;59.10;;;;;;5010873;28;20029;-58
2021/06/11 01:26:39;;;;;;;4.72;4.30;;;24.10;59.00;;;;;;5004224;28;20026;-60
2021/06/11 01:29:07;;;;;;;5.30;4.13;;;24.00;59.10;;;;;;5010766;28;20042;-59
2021/06/11 01:31:36;;;;;;;5.40;4.57;;;24.00;59.10;;;;;;5012970;28;20046;-59
2021/06/11 01:34:07;;;;;;;4.53;4.13;;;24.00;59.00;;;;;;5014518;28;20102;-60
2021/06/11 01:36:40;;;;;;;4.50;4.10;;;24.00;59.00;;;;;;5014674;28;20037;-59
2021/06/11 01:39:08;;;;;;;4.47;4.05;;;24.00;59.70;;;;;;5024401;28;20103;-60
2021/06/11 01:41:35;;;;;;;3.95;3.58;;;24.00;59.00;;;;;;5015149;28;20037;-60
2021/06/11 01:44:02;;;;;;;4.43;4.03;;;24.00;58.90;;;;;;5021898;28;20037;-60
2021/06/11 01:46:31;;;;;;;8.98;4.35;;;24.00;58.90;;;;;;5014935;28;20045;-60
2021/06/11 01:48:58;;;;;;;4.63;3.88;;;24.00;58.80;;;;;;5013694;28;20038;-59
2021/06/11 01:51:25;;;;;;;5.25;4.75;;;24.10;58.80;;;;;;5014157;28;20042;-60
2021/06/11 01:53:53;;;;;;;4.60;4.10;;;24.10;58.80;;;;;;5012867;28;20041;-55
2021/06/11 01:56:19;;;;;;;5.55;3.97;;;24.10;59.30;;;;;;5014516;28;20029;-59
2021/06/11 01:58:46;;;;;;;4.93;3.92;;;24.10;58.70;;;;;;5014819;28;20037;-59
2021/06/11 02:01:18;;;;;;;4.55;4.10;;;24.10;58.60;;;;;;5013792;28;20021;-59
2021/06/11 02:03:46;;;;;;;5.00;4.07;;;24.10;58.70;;;;;;5014144;28;20026;-59
2021/06/11 02:06:15;;;;;;;4.43;3.72;;;24.20;58.70;;;;;;5013748;28;20025;-59
2021/06/11 02:08:45;;;;;;;4.35;3.85;;;24.10;58.60;;;;;;5013906;28;20034;-59
2021/06/11 02:11:11;;;;;;;3.90;3.55;;;24.10;58.60;;;;;;5013485;28;20029;-59
2021/06/11 02:13:42;;;;;;;4.47;4.03;;;24.10;58.60;;;;;;5014436;28;20101;-60
2021/06/11 02:16:10;;;;;;;4.70;4.20;;;24.10;58.70;;;;;;5013655;28;20136;-60
2021/06/11 02:18:36;;;;;;;4.75;4.00;;;24.10;58.60;;;;;;5014544;28;20034;-61
2021/06/11 02:21:06;;;;;;;4.43;3.83;;;24.20;58.70;;;;;;5013672;28;20033;-60
2021/06/11 02:23:33;;;;;;;4.35;3.95;;;24.10;58.60;;;;;;5013901;28;20101;-60
2021/06/11 02:26:00;;;;;;;3.95;3.65;;;24.10;58.60;;;;;;5013292;28;20084;-60
2021/06/11 02:28:25;;;;;;;5.03;3.78;;;24.10;58.50;;;;;;5013541;28;20030;-60
2021/06/11 02:30:51;;;;;;;4.88;4.45;;;24.10;58.50;;;;;;5013503;28;20096;-53
2021/06/11 02:33:19;;;;;;;4.53;4.13;;;24.10;58.60;;;;;;5013613;28;20029;-60
2021/06/11 02:35:45;;;;;;;4.53;4.10;;;24.10;58.60;;;;;;5014074;28;20471;-60
2021/06/11 02:38:10;;;;;;;4.57;4.18;;;24.00;58.60;;;;;;5013002;28;20075;-60
2021/06/11 02:40:36;;;;;;;4.47;3.67;;;24.00;58.70;;;;;;5014159;28;20118;-60
2021/06/11 02:43:12;;;;;;;4.90;4.50;;;24.00;58.70;;;;;;5012902;28;20471;-59
2021/06/11 02:45:54;;;;;;;4.65;3.67;;;24.00;58.90;;;;;;5013896;28;20049;-60
2021/06/11 02:48:31;;;;;;;3.88;3.58;;;24.00;58.70;;;;;;5013514;28;20372;-60
2021/06/11 02:51:04;;;;;;;4.72;3.88;;;24.00;58.70;;;;;;5013017;28;20084;-59
2021/06/11 02:53:32;;;;;;;4.75;4.05;;;24.00;58.60;;;;;;5012956;28;20053;-61
2021/06/11 02:56:05;;;;;;;4.47;3.88;;;24.00;58.50;;;;;;5012877;28;20528;-60
2021/06/11 02:58:53;;;;;;;4.28;3.88;;;24.10;58.60;;;;;;5013343;28;20487;-59
2021/06/11 03:01:19;;;;;;;4.45;4.05;;;24.00;58.50;;;;;;5013428;28;20113;-59
2021/06/11 03:03:47;;;;;;;5.93;4.35;;;23.90;58.30;;;;;;5013043;28;20030;-60
2021/06/11 03:06:13;;;;;;;4.80;4.40;;;23.90;58.50;;;;;;5012642;28;20186;-60
2021/06/11 03:08:42;;;;;;;4.57;3.80;;;23.90;58.70;;;;;;5012513;28;20037;-60
2021/06/11 03:11:15;;;;;;;5.03;4.03;;;23.90;58.50;;;;;;5044439;28;20475;-60
2021/06/11 03:13:42;;;;;;;4.75;4.30;;;23.90;58.40;;;;;;5012996;28;20030;-58
2021/06/11 03:16:08;;;;;;;4.45;3.80;;;23.90;58.30;;;;;;5004070;28;20026;-56
2021/06/11 03:18:43;;;;;;;5.60;4.40;;;23.80;58.30;;;;;;5013115;28;20490;-60
2021/06/11 03:21:16;;;;;;;4.22;3.83;;;23.90;58.30;;;;;;5012699;28;20026;-60
2021/06/11 03:24:00;;;;;;;4.55;4.10;;;23.90;58.30;;;;;;5013074;28;20032;-59
2021/06/11 03:26:46;;;;;;;5.32;4.20;;;23.90;58.20;;;;;;5013285;28;20049;-59
2021/06/11 03:29:18;;;;;;;4.70;4.13;;;23.90;58.20;;;;;;5012051;28;20280;-59
2021/06/11 03:31:51;;;;;;;4.15;3.75;;;23.90;58.20;;;;;;5012953;28;20033;-60
2021/06/11 03:34:32;;;;;;;4.40;4.00;;;23.90;58.40;;;;;;5012168;28;20026;-59
2021/06/11 03:37:03;;;;;;;5.07;4.57;;;24.00;58.80;;;;;;5011935;28;20089;-60
2021/06/11 03:39:34;;;;;;;4.80;4.30;;;24.00;58.50;;;;;;5012502;28;20061;-60
2021/06/11 03:42:03;;;;;;;5.15;4.65;;;24.00;58.20;;;;;;5012450;28;20026;-59
2021/06/11 03:44:29;;;;;;;4.45;4.05;;;24.00;58.10;;;;;;5012364;28;20479;-59
2021/06/11 03:46:58;;;;;;;4.47;4.07;;;24.00;58.10;;;;;;5011933;28;20109;-53
2021/06/11 03:49:26;;;;;;;5.30;4.30;;;24.00;58.20;;;;;;5012382;28;20074;-59
2021/06/11 03:51:54;;;;;;;4.35;3.95;;;24.00;58.30;;;;;;5012199;28;20046;-60
2021/06/11 03:54:23;;;;;;;4.57;4.18;;;24.00;58.20;;;;;;5011715;28;20054;-60
2021/06/11 03:56:51;;;;;;;5.80;5.20;;;24.00;58.10;;;;;;5012521;28;20026;-59
2021/06/11 03:59:20;;;;;;;4.22;3.83;;;24.00;58.10;;;;;;5010693;28;20037;-60
2021/06/11 04:01:51;;;;;;;4.32;3.92;;;24.00;58.10;;;;;;5012483;28;20076;-61
2021/06/11 04:04:17;;;;;;;4.25;3.85;;;24.00;58.40;;;;;;5011798;28;21027;-60
2021/06/11 04:06:48;;;;;;;4.45;4.05;;;24.00;58.10;;;;;;5011618;28;20022;-60
2021/06/11 04:09:21;;;;;;;4.40;4.00;;;24.00;58.30;;;;;;5009639;28;20046;-59
2021/06/11 04:11:56;;;;;;;5.30;4.00;;;24.00;58.40;;;;;;5012231;28;20061;-60
2021/06/11 04:14:30;;;;;;;4.30;3.90;;;23.90;58.10;;;;;;5011615;28;20048;-60
2021/06/11 04:16:58;;;;;;;4.38;3.88;;;23.90;58.10;;;;;;5011811;28;20026;-55
2021/06/11 04:19:29;;;;;;;4.47;4.05;;;23.90;58.10;;;;;;5012021;28;20042;-60
2021/06/11 04:21:58;;;;;;;4.70;4.25;;;23.90;58.10;;;;;;5011944;28;20487;-55
2021/06/11 04:24:30;;;;;;;6.25;4.35;;;23.90;58.10;;;;;;5011709;28;20081;-59
2021/06/11 04:26:57;;;;;;;5.18;4.40;;;23.90;58.00;;;;;;5011671;28;20049;-55
2021/06/11 04:29:24;;;;;;;4.80;4.30;;;23.90;58.10;;;;;;5011899;28;20072;-61
2021/06/11 04:31:53;;;;;;;6.00;4.28;;;23.90;58.00;;;;;;5011634;28;20026;-61
2021/06/11 04:34:20;;;;;;;4.18;3.78;;;23.90;58.10;;;;;;5011134;28;20032;-59
2021/06/11 04:36:47;;;;;;;5.78;4.00;;;23.90;58.20;;;;;;5011547;28;20066;-60
2021/06/11 04:39:13;;;;;;;4.38;4.03;;;23.90;58.20;;;;;;5010749;28;20040;-59
2021/06/11 04:41:39;;;;;;;5.53;4.18;;;23.90;58.30;;;;;;5011780;28;20034;-60
2021/06/11 04:44:06;;;;;;;4.65;3.97;;;23.90;58.00;;;;;;5010626;28;20040;-60
2021/06/11 04:46:35;;;;;;;5.00;4.47;;;23.90;58.00;;;;;;5020583;28;20036;-59
2021/06/11 04:49:02;;;;;;;5.65;4.80;;;24.00;58.10;;;;;;5029197;28;20048;-60
2021/06/11 04:51:27;;;;;;;4.68;4.28;;;24.00;58.00;;;;;;5011815;28;20050;-60
2021/06/11 04:53:53;;;;;;;4.57;3.97;;;24.00;58.10;;;;;;5010809;28;20398;-60
2021/06/11 04:56:19;;;;;;;5.97;4.80;;;24.00;58.10;;;;;;5009938;28;20501;-60
2021/06/11 04:58:48;;;;;;;5.75;4.03;;;24.00;58.00;;;;;;5010917;28;20041;-60
2021/06/11 05:01:13;;;;;;;4.20;3.55;;;24.00;58.00;;;;;;5010092;28;20044;-60
2021/06/11 05:03:39;;;;;;;5.45;3.80;;;24.00;57.90;;;;;;5010739;28;20096;-59
2021/06/11 05:06:05;;;;;;;4.82;4.30;;;24.00;58.10;;;;;;5004010;28;20053;-59
2021/06/11 05:08:31;;;;;;;4.78;4.28;;;24.00;58.10;;;;;;5012549;28;20041;-59
2021/06/11 05:10:57;;;;;;;4.40;4.00;;;24.00;58.20;;;;;;5010872;28;20030;-54
2021/06/11 05:13:23;;;;;;;4.53;3.80;;;24.00;58.10;;;;;;5007288;28;20030;-59
2021/06/11 05:15:49;;;;;;;4.13;3.72;;;24.00;58.10;;;;;;5013176;28;20489;-60
2021/06/11 05:18:15;;;;;;;4.68;3.92;;;24.00;58.20;;;;;;5013247;28;20076;-60
2021/06/11 05:20:41;;;;;;;3.97;3.63;;;24.00;58.20;;;;;;5013440;28;20038;-59
2021/06/11 05:23:07;;;;;;;5.97;3.88;;;24.00;58.20;;;;;;5013161;28;20054;-60
2021/06/11 05:25:34;;;;;;;5.47;3.70;;;24.00;58.10;;;;;;5014066;28;20022;-60
2021/06/11 05:28:00;;;;;;;4.22;3.83;;;24.00;58.10;;;;;;5012867;28;20128;-57
2021/06/11 05:30:27;;;;;;;4.30;3.88;;;24.00;58.10;;;;;;5013595;28;20121;-59
2021/06/11 05:32:54;;;;;;;4.68;4.18;;;24.00;58.10;;;;;;5013760;28;20088;-61
2021/06/11 05:35:20;;;;;;;4.20;3.80;;;24.00;58.20;;;;;;5013205;28;20075;-61
2021/06/11 05:37:47;;;;;;;5.35;4.30;;;24.00;58.10;;;;;;5013745;28;20116;-61
2021/06/11 05:40:13;;;;;;;4.93;4.15;;;24.00;58.00;;;;;;5012833;28;20033;-60
2021/06/11 05:42:39;;;;;;;4.68;4.13;;;24.00;57.70;;;;;;5013133;28;20530;-62
2021/06/11 05:45:07;;;;;;;6.38;4.05;;;24.00;58.10;;;;;;5013038;28;20113;-62
2021/06/11 05:47:36;;;;;;;10.68;5.60;;;24.00;58.50;;;;;;5013575;28;20073;-61
2021/06/11 05:50:01;;;;;;;6.50;5.43;;;23.90;58.00;;;;;;5012841;28;20034;-55
2021/06/11 05:52:27;;;;;;;6.38;5.25;;;23.30;58.90;;;;;;5009739;28;117451;-64
2021/06/11 05:54:53;;;;;;;6.03;5.03;;;22.80;60.10;;;;;;5014838;28;20044;-62
2021/06/11 05:57:18;;;;;;;8.45;5.60;;;22.60;60.70;;;;;;5011966;28;20034;-61
2021/06/11 05:59:44;;;;;;;5.10;4.60;;;22.40;61.30;;;;;;5013998;28;20069;-63
2021/06/11 06:02:10;;;;;;;7.47;5.40;;;22.30;61.70;;;;;;5013515;28;20041;-61
2021/06/11 06:04:35;;;;;;;6.05;5.32;;;22.30;61.90;;;;;;5014903;28;20060;-58
2021/06/11 06:07:01;;;;;;;7.07;5.55;;;22.30;61.90;;;;;;5011547;28;20030;-56
2021/06/11 06:09:27;;;;;;;6.93;5.80;;;22.20;62.10;;;;;;5013125;28;20021;-60
2021/06/11 06:11:52;;;;;;;7.88;5.75;;;22.40;61.80;;;;;;5014006;28;20037;-60
2021/06/11 06:14:18;;;;;;;6.78;4.88;;;22.30;62.00;;;;;;5016498;28;20070;-60
2021/06/11 06:16:44;;;;;;;7.05;5.47;;;22.30;62.20;;;;;;5016969;28;20415;-61
2021/06/11 06:19:10;;;;;;;6.63;5.25;;;22.30;62.00;;;;;;5013024;28;20034;-61
2021/06/11 06:21:35;;;;;;;6.47;5.75;;;22.30;61.90;;;;;;5012558;28;20092;-61
2021/06/11 06:24:01;;;;;;;7.43;4.97;;;22.30;62.10;;;;;;5013896;28;20101;-58
2021/06/11 06:26:28;;;;;;;6.68;5.72;;;22.30;62.10;;;;;;5013125;28;20125;-62
2021/06/11 06:28:54;;;;;;;8.10;5.88;;;22.30;62.10;;;;;;5013866;28;20397;-62
2021/06/11 06:31:21;;;;;;;8.45;6.22;;;22.30;62.20;;;;;;5015749;28;20095;-63
2021/06/11 06:33:47;;;;;;;5.50;4.95;;;22.30;62.10;;;;;;5013999;28;20030;-64
2021/06/11 06:36:12;;;;;;;9.68;5.53;;;22.30;62.10;;;;;;5012786;28;20034;-63
2021/06/11 06:38:38;;;;;;;8.13;5.30;;;22.40;62.80;;;;;;5013754;28;20092;-62
2021/06/11 06:41:05;;;;;;;6.85;5.72;;;22.40;62.30;;;;;;5012497;28;20034;-62
2021/06/11 06:43:32;;;;;;;7.50;5.70;;;22.40;62.20;;;;;;5013805;28;20037;-63
2021/06/11 06:45:59;;;;;;;7.32;5.75;;;22.30;62.30;;;;;;5013295;28;20022;-63
2021/06/11 06:48:25;;;;;;;8.43;5.15;;;22.30;62.50;;;;;;5012562;28;20609;-64
2021/06/11 06:50:51;;;;;;;6.75;5.45;;;22.30;62.70;;;;;;5013523;28;20506;-62
2021/06/11 06:53:20;;;;;;;9.00;5.35;;;22.40;62.80;;;;;;5012514;28;20042;-64
2021/06/11 06:55:46;;;;;;;7.35;5.38;;;22.40;62.90;;;;;;5013437;28;20041;-64
2021/06/11 06:58:11;;;;;;;7.25;5.95;;;22.50;62.80;;;;;;5012601;28;20034;-63
2021/06/11 07:00:37;;;;;;;6.20;5.05;;;22.40;63.00;;;;;;5012040;28;20051;-63
2021/06/11 07:03:03;;;;;;;8.68;5.90;;;22.50;63.50;;;;;;5012699;28;20034;-61
2021/06/11 07:05:29;;;;;;;8.85;5.40;;;22.50;63.20;;;;;;5013175;28;20176;-62
2021/06/11 07:07:54;;;;;;;8.68;5.90;;;22.50;63.10;;;;;;5013487;28;20458;-62
2021/06/11 07:10:21;;;;;;;7.43;5.57;;;22.50;63.40;;;;;;5011969;28;20112;-62
2021/06/11 07:12:46;;;;;;;10.10;6.63;;;22.50;63.20;;;;;;5005482;28;20022;-62
2021/06/11 07:15:12;;;;;;;9.60;5.72;;;22.60;63.20;;;;;;5011855;28;20483;-62
2021/06/11 07:17:39;;;;;;;9.80;5.63;;;22.60;63.30;;;;;;5013086;28;20034;-63
2021/06/11 07:20:06;;;;;;;9.98;6.53;;;22.60;62.80;;;;;;5027724;28;20065;-56
2021/06/11 07:22:32;;;;;;;8.90;5.75;;;22.70;62.90;;;;;;5015392;28;20025;-62
2021/06/11 07:25:02;;;;;;;7.10;6.10;;;22.70;63.00;;;;;;5013627;28;20361;-62
2021/06/11 07:27:31;;;;;;;9.95;7.10;;;22.80;63.10;;;;;;5012355;28;20018;-62
2021/06/11 07:29:57;;;;;;;8.02;6.40;;;22.80;62.90;;;;;;5011999;28;20037;-62
2021/06/11 07:32:24;;;;;;;11.38;6.75;;;22.90;62.60;;;;;;5020316;28;20026;-62
2021/06/11 07:34:49;;;;;;;6.75;6.03;;;23.00;62.30;;;;;;5012759;28;20026;-63
2021/06/11 07:37:15;;;;;;;11.10;6.80;;;23.00;62.60;;;;;;5011319;28;20493;-62
2021/06/11 07:39:41;;;;;;;9.50;6.40;;;23.00;62.30;;;;;;5012961;28;20038;-60
2021/06/11 07:42:06;;;;;;;8.18;6.03;;;23.10;62.00;;;;;;5012662;28;20052;-59
2021/06/11 07:44:34;;;;;;;8.15;5.30;;;23.30;61.60;;;;;;5017111;28;20398;-59
2021/06/11 07:46:59;;;;;;;9.05;5.13;;;23.40;61.10;;;;;;5012947;28;20036;-57
2021/06/11 07:49:25;;;;;;;8.23;5.00;;;23.50;60.90;;;;;;5012167;28;20414;-60
2021/06/11 07:51:50;;;;;;;5.55;4.32;;;23.60;61.00;;;;;;5012732;28;20046;-60
2021/06/11 07:54:16;;;;;;;5.68;4.53;;;23.70;60.60;;;;;;5010907;28;20022;-60
2021/06/11 07:56:42;;;;;;;5.47;4.80;;;23.80;60.60;;;;;;5012294;28;20073;-60
2021/06/11 07:59:07;;;;;;;7.00;4.65;;;23.80;60.50;;;;;;5019110;28;20103;-58
2021/06/11 08:01:34;;;;;;;5.25;4.50;;;23.80;60.40;;;;;;5011694;28;20038;-61
2021/06/11 08:04:00;;;;;;;6.60;5.20;;;23.80;60.40;;;;;;5012542;28;20054;-59
2021/06/11 08:06:25;;;;;;;5.80;4.95;;;23.80;60.30;;;;;;5011788;28;20646;-60
2021/06/11 08:08:51;;;;;;;7.38;4.85;;;23.80;60.30;;;;;;5012676;28;20030;-61
2021/06/11 08:11:17;;;;;;;4.88;4.45;;;23.80;60.30;;;;;;5011310;28;20029;-60
2021/06/11 08:13:42;;;;;;;6.25;4.43;;;23.90;60.40;;;;;;5015820;28;20026;-60
2021/06/11 08:16:08;;;;;;;4.90;4.38;;;23.90;60.40;;;;;;5017106;28;20034;-60
2021/06/11 08:18:34;;;;;;;6.85;4.57;;;23.90;60.30;;;;;;5012352;28;20078;-60
2021/06/11 08:20:59;;;;;;;7.13;5.00;;;23.90;60.30;;;;;;5012359;28;20029;-61
2021/06/11 08:23:25;;;;;;;8.15;4.55;;;23.90;60.30;;;;;;5014384;28;20050;-59
2021/06/11 08:25:51;;;;;;;7.25;4.78;;;23.90;60.30;;;;;;5043739;28;20120;-60
2021/06/11 08:28:17;;;;;;;8.65;5.25;;;23.90;60.20;;;;;;5011341;28;20445;-59
2021/06/11 08:30:42;;;;;;;9.43;4.75;;;24.00;60.20;;;;;;5012164;28;20476;-60
2021/06/11 08:33:08;;;;;;;6.10;5.22;;;24.00;60.20;;;;;;5011337;28;20088;-60
2021/06/11 08:35:34;;;;;;;5.78;4.55;;;24.00;60.20;;;;;;5043892;28;20108;-60
2021/06/11 08:38:00;;;;;;;6.47;4.38;;;24.00;60.10;;;;;;5011869;28;20034;-60
2021/06/11 08:40:27;;;;;;;6.65;5.00;;;24.00;60.10;;;;;;5010958;28;20030;-60
2021/06/11 08:42:53;;;;;;;7.38;4.47;;;24.00;60.10;;;;;;5011172;28;20391;-59
2021/06/11 08:45:20;;;;;;;7.00;4.35;;;24.00;60.10;;;;;;5011597;28;20033;-59
2021/06/11 08:47:51;;;;;;;6.53;4.47;;;24.00;60.10;;;;;;5011350;28;20122;-60
2021/06/11 08:50:30;;;;;;;7.85;4.30;;;24.00;60.00;;;;;;5010591;28;20439;-59
2021/06/11 08:52:56;;;;;;;5.53;4.32;;;24.00;60.00;;;;;;5011030;28;20096;-60
2021/06/11 08:55:22;;;;;;;12.05;5.03;;;24.00;60.00;;;;;;5010867;28;20487;-60
2021/06/11 08:57:49;;;;;;;5.72;4.47;;;24.00;60.00;;;;;;5011090;28;20045;-60
2021/06/11 09:00:16;;;;;;;6.47;4.13;;;24.00;60.10;;;;;;5010792;28;20040;-60
2021/06/11 09:03:41;;;;;;;7.70;4.30;;;24.00;60.10;;;;;;5011064;28;20454;-60
2021/06/11 09:06:12;;;;;;;7.28;3.92;;;24.10;60.20;;;;;;5010520;28;20026;-56
2021/06/11 09:08:39;;;;;;;5.78;4.50;;;24.10;60.20;;;;;;5007852;28;20473;-59
2021/06/11 09:11:30;;;;;;;8.57;5.05;;;24.10;60.20;;;;;;5010929;28;20044;-54
2021/06/11 09:14:12;;;;;;;5.55;4.10;;;24.10;60.20;;;;;;5011302;28;20038;-60
2021/06/11 09:16:46;;;;;;;4.75;4.25;;;24.00;60.20;;;;;;5011726;28;20117;-60
2021/06/11 09:19:18;;;;;;;6.70;4.07;;;24.10;60.80;;;;;;5010488;28;20026;-59
2021/06/11 09:21:49;;;;;;;4.78;3.97;;;24.10;60.20;;;;;;5011372;28;20426;-60
2021/06/11 09:24:23;;;;;;;4.47;3.80;;;24.00;60.10;;;;;;5010622;28;20026;-60
2021/06/11 09:27:03;;;;;;;7.53;4.15;;;24.10;60.20;;;;;;5003460;28;20030;-60
2021/06/11 09:29:42;;;;;;;4.57;4.18;;;24.10;60.20;;;;;;5010609;28;20032;-59
2021/06/11 09:32:16;;;;;;;4.43;3.95;;;24.10;60.50;;;;;;5004311;28;20038;-57
2021/06/11 09:35:00;;;;;;;6.15;4.72;;;24.10;60.20;;;;;;5010756;28;20108;-59
2021/06/11 09:37:36;;;;;;;6.10;4.43;;;24.10;60.20;;;;;;5010682;28;20173;-60
2021/06/11 09:40:06;;;;;;;4.72;4.32;;;24.10;60.10;;;;;;5010789;28;20164;-59
2021/06/11 09:42:34;;;;;;;4.93;4.13;;;24.10;60.10;;;;;;5010558;28;20041;-60
2021/06/11 09:45:05;;;;;;;5.75;4.13;;;24.10;60.20;;;;;;5025928;28;20037;-60
2021/06/11 09:47:35;;;;;;;4.63;4.22;;;24.10;60.10;;;;;;5009966;28;20549;-60
2021/06/11 09:50:30;;;;;;;4.95;4.28;;;24.10;60.10;;;;;;5010824;28;20443;-60
2021/06/11 09:53:03;;;;;;;4.57;3.97;;;24.10;60.10;;;;;;5008875;28;20046;-58
2021/06/11 09:55:36;;;;;;;5.53;4.10;;;24.10;60.00;;;;;;5045635;28;20704;-60
2021/06/11 09:58:03;;;;;;;4.65;4.18;;;24.10;60.00;;;;;;5046355;28;20080;-57
2021/06/11 10:00:33;;;;;;;5.03;4.25;;;24.10;60.00;;;;;;5013367;28;20619;-60
2021/06/11 10:03:00;;;;;;;4.80;4.30;;;24.10;60.00;;;;;;5014260;28;20041;-60
2021/06/11 10:05:28;;;;;;;8.13;4.13;;;24.10;60.00;;;;;;5013563;28;20034;-59
2021/06/11 10:07:55;;;;;;;4.78;4.28;;;24.10;60.00;;;;;;5013787;28;20454;-60
2021/06/11 10:10:21;;;;;;;5.75;3.90;;;24.10;60.00;;;;;;5012093;28;20030;-60
2021/06/11 10:12:47;;;;;;;5.85;4.15;;;24.10;60.00;;;;;;5029476;28;20428;-60
2021/06/11 10:15:14;;;;;;;4.72;4.30;;;24.10;60.00;;;;;;5013486;28;20030;-59
2021/06/11 10:17:44;;;;;;;4.30;3.90;;;24.10;59.90;;;;;;5014083;28;20104;-59
2021/06/11 10:20:14;;;;;;;3.92;3.53;;;24.10;59.90;;;;;;5013223;28;20062;-56
2021/06/11 10:22:40;;;;;;;6.47;4.70;;;24.10;59.80;;;;;;5046215;28;20376;-60
2021/06/11 10:25:14;;;;;;;4.38;3.97;;;24.20;59.90;;;;;;5014047;28;20098;-59
2021/06/11 10:27:42;;;;;;;5.50;4.55;;;24.20;59.80;;;;;;5014225;28;20365;-60
2021/06/11 10:30:09;;;;;;;4.60;3.65;;;24.20;59.90;;;;;;5013985;28;20053;-56
2021/06/11 10:32:40;;;;;;;4.97;4.10;;;24.10;59.80;;;;;;5013580;28;20046;-60
2021/06/11 10:35:08;;;;;;;4.45;3.95;;;24.10;60.30;;;;;;5014079;28;20026;-60
2021/06/11 10:37:42;;;;;;;5.15;4.20;;;24.20;59.80;;;;;;5012702;28;20038;-59
2021/06/11 10:40:23;;;;;;;4.60;4.20;;;24.20;59.70;;;;;;5013009;28;20062;-56
2021/06/11 10:43:12;;;;;;;5.10;4.55;;;24.10;59.70;;;;;;5013656;28;20026;-60
2021/06/11 10:45:43;;;;;;;4.60;4.20;;;24.20;59.70;;;;;;5010593;28;20033;-60
2021/06/11 10:48:09;;;;;;;4.63;4.18;;;24.20;59.70;;;;;;5013241;28;20420;-55
2021/06/11 10:50:37;;;;;;;4.47;4.07;;;24.20;59.70;;;;;;5012505;28;20042;-60
2021/06/11 10:53:13;;;;;;;6.07;4.20;;;24.20;59.80;;;;;;5013362;28;20046;-59
2021/06/11 10:55:49;;;;;;;5.00;4.50;;;24.20;59.80;;;;;;5013615;28;20037;-60
2021/06/11 10:58:15;;;;;;;5.53;4.28;;;24.10;59.70;;;;;;5012800;28;20100;-60
2021/06/11 11:00:42;;;;;;;5.97;5.13;;;24.20;59.70;;;;;;5013472;28;20030;-60
2021/06/11 11:03:22;;;;;;;4.93;4.43;;;24.20;59.70;;;;;;5012566;28;20080;-60
2021/06/11 11:05:48;;;;;;;5.00;4.50;;;24.10;59.60;;;;;;5013358;28;20105;-60
2021/06/11 11:08:13;;;;;;;5.50;4.45;;;24.10;59.60;;;;;;5011850;28;20117;-58
2021/06/11 11:10:46;;;;;;;4.65;4.20;;;24.20;59.60;;;;;;5013303;28;20030;-60
2021/06/11 11:13:16;;;;;;;4.82;4.32;;;24.20;59.60;;;;;;5012641;28;20160;-57
2021/06/11 11:15:50;;;;;;;4.00;3.60;;;24.20;59.60;;;;;;5013231;28;20096;-60
2021/06/11 11:18:24;;;;;;;4.80;4.30;;;24.20;59.60;;;;;;5012381;28;20038;-59
2021/06/11 11:20:51;;;;;;;5.18;4.10;;;24.20;59.60;;;;;;5012788;28;20042;-60
2021/06/11 11:23:20;;;;;;;5.25;4.68;;;24.20;59.60;;;;;;5030141;28;20029;-59
2021/06/11 11:25:49;;;;;;;4.72;4.22;;;24.20;59.60;;;;;;5033048;28;20452;-60
2021/06/11 11:28:16;;;;;;;5.05;4.20;;;24.20;59.60;;;;;;5023695;28;20060;-60
2021/06/11 11:30:45;;;;;;;4.57;4.18;;;24.20;59.60;;;;;;5012771;28;20037;-59
2021/06/11 11:33:12;;;;;;;4.13;3.75;;;24.20;59.60;;;;;;5012669;28;20117;-54
2021/06/11 11:35:40;;;;;;;5.63;4.35;;;24.20;59.60;;;;;;5012050;28;20030;-60
2021/06/11 11:38:08;;;;;;;4.50;4.10;;;24.20;59.60;;;;;;5013057;28;20057;-60
2021/06/11 11:40:35;;;;;;;4.57;4.10;;;24.20;59.60;;;;;;5012181;28;20085;-60
2021/06/11 11:43:01;;;;;;;4.40;4.00;;;24.20;59.50;;;;;;5011431;28;20374;-59
2021/06/11 11:45:29;;;;;;;4.78;4.35;;;24.20;59.60;;;;;;5011924;28;20030;-60
2021/06/11 11:47:56;;;;;;;4.63;4.00;;;24.20;59.60;;;;;;5012770;28;20033;-60
2021/06/11 11:50:23;;;;;;;4.72;4.05;;;24.20;59.50;;;;;;5011861;28;20129;-60
2021/06/11 11:52:48;;;;;;;5.80;3.97;;;24.20;59.50;;;;;;5012815;28;20057;-60
2021/06/11 11:55:15;;;;;;;4.43;4.03;;;24.20;59.50;;;;;;5012040;28;20029;-55
2021/06/11 11:57:42;;;;;;;4.68;4.28;;;24.20;59.50;;;;;;5012564;28;20144;-60
2021/06/11 12:00:10;;;;;;;4.72;4.13;;;24.20;59.50;;;;;;5012290;28;20435;-60
2021/06/11 12:02:36;;;;;;;4.25;3.85;;;24.20;59.50;;;;;;5011672;28;20065;-59
2021/06/11 12:05:02;;;;;;;4.40;4.00;;;24.20;59.50;;;;;;5011976;28;20483;-59
2021/06/11 12:07:27;;;;;;;4.45;4.00;;;24.20;59.50;;;;;;5011194;28;20030;-59
2021/06/11 12:09:53;;;;;;;4.10;3.70;;;24.20;59.50;;;;;;5011937;28;20102;-60
2021/06/11 12:12:20;;;;;;;4.63;4.22;;;24.20;59.50;;;;;;5010989;28;20117;-59
2021/06/11 12:14:45;;;;;;;5.35;3.95;;;24.20;59.50;;;;;;5011907;28;20037;-60
2021/06/11 12:17:12;;;;;;;4.22;3.83;;;24.20;59.50;;;;;;5011730;28;20026;-53
2021/06/11 12:19:38;;;;;;;4.40;4.00;;;24.20;59.50;;;;;;5011432;28;20053;-60
2021/06/11 12:22:04;;;;;;;4.35;3.75;;;24.20;59.40;;;;;;5010652;28;20034;-60
2021/06/11 12:24:30;;;;;;;5.57;3.72;;;24.20;59.50;;;;;;5011563;28;20030;-60
2021/06/11 12:26:55;;;;;;;4.95;4.45;;;24.20;59.40;;;;;;5012074;28;20040;-60
2021/06/11 12:29:21;;;;;;;4.40;3.85;;;24.20;59.40;;;;;;5010752;28;20035;-60
2021/06/11 12:31:51;;;;;;;4.97;4.13;;;24.20;59.40;;;;;;5012183;28;20045;-60
2021/06/11 12:34:18;;;;;;;4.60;4.20;;;24.20;59.40;;;;;;5011403;28;20364;-60
2021/06/11 12:36:44;;;;;;;4.43;4.03;;;24.20;59.40;;;;;;5011854;28;20034;-60
2021/06/11 12:39:11;;;;;;;4.60;4.20;;;24.20;59.30;;;;;;5011879;28;20034;-60
2021/06/11 12:41:38;;;;;;;4.15;3.75;;;24.20;59.30;;;;;;5011078;28;20038;-59
2021/06/11 12:44:15;;;;;;;4.28;3.80;;;24.20;59.30;;;;;;5012087;28;20030;-60
2021/06/11 12:46:49;;;;;;;4.93;4.43;;;24.20;59.30;;;;;;5011188;28;20052;-59
2021/06/11 12:49:16;;;;;;;4.82;3.88;;;24.20;59.30;;;;;;5011544;28;20029;-56
2021/06/11 12:51:43;;;;;;;4.90;4.18;;;24.20;59.30;;;;;;5011005;28;20085;-60